logo tempoitalia

Diretta Meteo Elista, Russialunedì 31 agosto ore 09:00

Mappa
Sereno 21 °C Sereno 24 Ore: T.min 10 T.max 26
Ponente Est/Sud-Est Km/h 28.8 Punto di rugiada: 0 °C Umidità: 24% Visibilità: 10 Km
Il sole sorge alle: 05:21 Il sole tramonta alle: 18:44
31 Agosto 2026 09:00 tempo osservato: Sereno Sereno 21 24 1022 vento: Nord E/SE 28.8
31 Agosto 2026 08:30 tempo osservato: Sereno Sereno 19 32 1022 vento: Nord E 21.6
31 Agosto 2026 08:00 tempo osservato: Sereno Sereno 17 39 1022 vento: Nord E 14.4
31 Agosto 2026 07:30 tempo osservato: Sereno Sereno 16 44 1022 vento: Nord E 14.4
31 Agosto 2026 07:00 tempo osservato: Sereno Sereno 14 50 1022 vento: Nord N 7.2
31 Agosto 2026 06:30 tempo osservato: Sereno Sereno 12 57 1022 vento: Nord N 7.2
31 Agosto 2026 06:00 tempo osservato: Sereno Sereno 10 66 1022 vento: Nord N 7.2
31 Agosto 2026 05:30 tempo osservato: Sereno Sereno 10 61 1022 vento: Nord E/NE 10.8
31 Agosto 2026 05:00 tempo osservato: Sereno Sereno 10 71 1022 vento: Nord E 10.8
31 Agosto 2026 04:30 tempo osservato: Sereno Sereno 10 76 1022 vento: Nord E/SE 10.8
31 Agosto 2026 04:00 tempo osservato: Sereno Sereno 11 76 1022 vento: Nord E 14.4
31 Agosto 2026 03:30 tempo osservato: Sereno Sereno 11 66 1022 vento: Nord E 14.4
31 Agosto 2026 03:00 tempo osservato: Sereno Sereno 11 71 1022 vento: Nord SE 14.4
31 Agosto 2026 02:30 tempo osservato: Sereno Sereno 12 71 1022 vento: Nord E/SE 18
31 Agosto 2026 02:00 tempo osservato: Sereno Sereno 13 66 1022 vento: Nord E/SE 10.8
31 Agosto 2026 01:30 tempo osservato: Sereno Sereno 14 58 1021 vento: Nord SE 18
31 Agosto 2026 01:00 tempo osservato: Sereno Sereno 12 54 1021 vento: Nord SE 14.4
31 Agosto 2026 00:30 tempo osservato: Sereno Sereno 13 50 1021 vento: Nord E/SE 14.4
31 Agosto 2026 00:00 tempo osservato: Sereno Sereno 14 47 1021 vento: Nord E/SE 10.8
30 Agosto 2026 23:30 tempo osservato: Sereno Sereno 15 38 1021 vento: Nord SE 14.4
30 Agosto 2026 23:00 tempo osservato: Sereno Sereno 16 33 1021 vento: Nord E/SE 14.4
30 Agosto 2026 22:30 tempo osservato: Sereno Sereno 17 27 1021 vento: Nord E/SE 18
30 Agosto 2026 22:00 tempo osservato: Sereno Sereno 16 23 1021 vento: Nord E 21.6
30 Agosto 2026 21:30 tempo osservato: Sereno Sereno 17 21 1021 vento: Nord E 21.6
30 Agosto 2026 21:00 tempo osservato: Sereno Sereno 18 20 1021 vento: Nord E 21.6
30 Agosto 2026 20:30 tempo osservato: Sereno Sereno 18 20 1021 vento: Nord E 21.6
30 Agosto 2026 20:00 tempo osservato: Sereno Sereno 18 20 1021 vento: Nord E 18
30 Agosto 2026 19:30 tempo osservato: Sereno Sereno 19 17 1021 vento: Nord E 18
30 Agosto 2026 19:00 tempo osservato: Sereno Sereno 20 16 1020 vento: Nord E 18
30 Agosto 2026 18:30 tempo osservato: Sereno Sereno 23 13 1020 vento: Nord E 25.2
30 Agosto 2026 18:00 tempo osservato: Sereno Sereno 24 13 1020 vento: Nord E 28.8
30 Agosto 2026 17:30 tempo osservato: Sereno Sereno 25 12 1020 vento: Nord E 28.8
30 Agosto 2026 17:00 tempo osservato: Sereno Sereno 25 13 1020 vento: Nord E 28.8
30 Agosto 2026 16:30 tempo osservato: Sereno Sereno 26 11 1020 vento: Nord E 32.4
30 Agosto 2026 16:00 tempo osservato: Sereno Sereno 25 13 1020 vento: Nord E 32.4
30 Agosto 2026 15:30 tempo osservato: Sereno Sereno 26 13 1020 vento: Nord E 32.4
30 Agosto 2026 15:00 tempo osservato: Sereno Sereno 26 13 1020 vento: Nord E 28.8
30 Agosto 2026 14:30 tempo osservato: Sereno Sereno 26 13 1020 vento: Nord E 32.4
30 Agosto 2026 14:00 tempo osservato: Sereno Sereno 26 14 1020 vento: Nord E 25.2
30 Agosto 2026 13:30 tempo osservato: Sereno Sereno 26 14 1021 vento: Nord E 32.4
30 Agosto 2026 13:00 tempo osservato: Sereno Sereno 25 16 1021 vento: Nord E 32.4
30 Agosto 2026 12:30 tempo osservato: Sereno Sereno 25 15 1021 vento: Nord E 28.8
30 Agosto 2026 12:00 tempo osservato: Sereno Sereno 25 15 1021 vento: Nord E 32.4
30 Agosto 2026 11:30 tempo osservato: Sereno Sereno 24 17 1021 vento: Nord E 25.2
30 Agosto 2026 11:00 tempo osservato: Sereno Sereno 24 19 1021 vento: Nord E 28.8
30 Agosto 2026 10:30 tempo osservato: Sereno Sereno 23 21 1022 vento: Nord E 36
30 Agosto 2026 10:00 tempo osservato: Sereno Sereno 23 23 1022 vento: Nord E/SE 32.4